Time;durP1;ratioP1;P1;durP2;ratioP2;P2;SDS_P1;SDS_P2;PMS_P1;PMS_P2;Temp;Humidity;BMP_temperature;BMP_pressure;BME280_temperature;BME280_humidity;BME280_pressure;Samples;Min_cycle;Max_cycle;Signal;HPM_P1;HPM_P2
2023/11/15 00:02:11;;;;;;;3.90;1.60;;;;;;;10.08;100.00;97618.28;109510;1253;58162;-69
2023/11/15 00:04:37;;;;;;;3.30;1.60;;;;;;;10.06;100.00;97621.33;109522;1253;64030;-70
2023/11/15 00:07:05;;;;;;;4.00;1.50;;;;;;;10.04;100.00;97619.92;109528;1252;61317;-68
2023/11/15 00:09:31;;;;;;;1.70;1.20;;;;;;;10.00;100.00;97619.50;109542;1252;64087;-68
2023/11/15 00:11:58;;;;;;;2.60;1.30;;;;;;;9.98;100.00;97617.23;109448;1254;58157;-68
2023/11/15 00:14:25;;;;;;;2.60;1.40;;;;;;;9.96;100.00;97615.59;109155;1253;58279;-68
2023/11/15 00:16:51;;;;;;;4.90;1.90;;;;;;;9.96;100.00;97613.55;109523;1253;64869;-68
2023/11/15 00:19:20;;;;;;;3.80;1.80;;;;;;;9.95;100.00;97606.70;109343;1254;61216;-68
2023/11/15 00:21:46;;;;;;;2.40;1.60;;;;;;;9.94;100.00;97609.73;109517;1254;64243;-69
2023/11/15 00:24:13;;;;;;;3.90;1.30;;;;;;;9.93;100.00;97608.98;109487;1254;58457;-69
2023/11/15 00:26:39;;;;;;;2.90;1.80;;;;;;;9.92;100.00;97606.81;109516;1252;58151;-68
2023/11/15 00:29:06;;;;;;;2.10;1.60;;;;;;;9.90;100.00;97607.81;109500;1254;58550;-69
2023/11/15 00:31:33;;;;;;;3.10;1.40;;;;;;;9.88;100.00;97610.44;109478;1254;70485;-69
2023/11/15 00:34:00;;;;;;;4.50;1.40;;;;;;;9.88;100.00;97612.87;109488;1254;63873;-69
2023/11/15 00:36:27;;;;;;;4.20;1.70;;;;;;;9.88;100.00;97606.92;109506;1252;58263;-68
2023/11/15 00:38:54;;;;;;;2.60;1.30;;;;;;;9.88;100.00;97607.27;109492;1253;58149;-69
2023/11/15 00:41:20;;;;;;;2.00;1.50;;;;;;;9.87;100.00;97605.36;109541;1252;65691;-69
2023/11/15 00:43:47;;;;;;;2.80;1.90;;;;;;;9.86;100.00;97603.33;109493;1254;58219;-70
2023/11/15 00:46:15;;;;;;;2.20;1.40;;;;;;;9.85;100.00;97603.45;109524;1254;63753;-70
2023/11/15 00:48:42;;;;;;;3.90;1.40;;;;;;;9.83;100.00;97605.00;109509;1253;58223;-70
2023/11/15 00:51:08;;;;;;;2.60;1.40;;;;;;;9.82;100.00;97607.44;109504;1253;58227;-69
2023/11/15 00:53:35;;;;;;;4.70;2.10;;;;;;;9.79;100.00;97602.52;109511;1251;65206;-69
2023/11/15 00:56:02;;;;;;;2.10;1.50;;;;;;;9.75;100.00;97603.02;109524;1254;58164;-69
2023/11/15 00:58:30;;;;;;;3.00;1.60;;;;;;;9.71;100.00;97597.91;109486;1253;64576;-68
2023/11/15 01:00:59;;;;;;;2.40;1.10;;;;;;;9.70;100.00;97601.73;109513;1253;58169;-69
2023/11/15 01:03:26;;;;;;;3.10;1.70;;;;;;;9.67;100.00;97607.29;109485;1253;58246;-69
2023/11/15 01:05:54;;;;;;;3.80;1.60;;;;;;;9.64;100.00;97605.45;109483;1254;65303;-70
2023/11/15 01:08:25;;;;;;;3.70;1.60;;;;;;;9.60;100.00;97605.23;109501;1253;60138;-69
2023/11/15 01:10:53;;;;;;;2.10;1.40;;;;;;;9.57;100.00;97606.34;109548;1254;62849;-69
2023/11/15 01:13:20;;;;;;;3.00;1.30;;;;;;;9.55;100.00;97605.48;109529;1253;58349;-69
2023/11/15 01:15:48;;;;;;;2.30;1.40;;;;;;;9.54;100.00;97607.86;109116;1257;58186;-69
2023/11/15 01:18:14;;;;;;;3.10;1.40;;;;;;;9.54;100.00;97603.80;109520;1253;64016;-69
2023/11/15 01:20:42;;;;;;;3.20;1.60;;;;;;;9.52;100.00;97596.84;109524;1254;60259;-69
2023/11/15 01:23:09;;;;;;;3.10;1.70;;;;;;;9.52;100.00;97598.64;109109;1257;64098;-69
2023/11/15 01:25:36;;;;;;;3.20;1.60;;;;;;;9.51;100.00;97598.35;109070;1257;58191;-70
2023/11/15 01:28:03;;;;;;;2.00;1.30;;;;;;;9.50;100.00;97597.61;109118;1257;58341;-70
2023/11/15 01:30:29;;;;;;;3.40;1.40;;;;;;;9.49;100.00;97596.64;109081;1257;65279;-69
2023/11/15 01:32:56;;;;;;;1.90;1.30;;;;;;;9.48;100.00;97600.98;109110;1257;61578;-69
2023/11/15 01:35:23;;;;;;;3.40;1.80;;;;;;;9.47;100.00;97599.64;109085;1258;62530;-69
2023/11/15 01:37:51;;;;;;;3.80;1.80;;;;;;;9.46;100.00;97599.33;109097;1256;58272;-70
2023/11/15 01:40:21;;;;;;;4.90;1.50;;;;;;;9.46;100.00;97599.52;109073;1256;58177;-70
2023/11/15 01:42:47;;;;;;;;;;;;;;;9.46;100.00;97597.02;109087;1257;64990;-69
2023/11/15 01:45:14;;;;;;;3.50;1.60;;;;;;;9.45;100.00;97596.73;109080;1257;58922;-69
2023/11/15 01:47:42;;;;;;;4.10;1.70;;;;;;;9.47;100.00;97594.67;109089;1257;64070;-69
2023/11/15 01:50:10;;;;;;;4.10;2.10;;;;;;;9.46;100.00;97595.77;109030;1260;58230;-69
2023/11/15 01:52:37;;;;;;;2.90;1.50;;;;;;;9.47;100.00;97595.73;109083;1257;58275;-69
2023/11/15 01:55:06;;;;;;;1.90;1.50;;;;;;;9.46;100.00;97601.08;109386;1254;65277;-69
2023/11/15 01:57:35;;;;;;;1.40;1.10;;;;;;;9.45;100.00;97599.23;109518;1253;60211;-69
2023/11/15 02:00:06;;;;;;;1.70;1.20;;;;;;;9.42;100.00;97599.66;109514;1252;64039;-70
2023/11/15 02:02:33;;;;;;;2.60;1.70;;;;;;;9.39;100.00;97601.13;109487;1252;58472;-69
2023/11/15 02:05:00;;;;;;;2.00;1.50;;;;;;;9.37;100.00;97600.83;109210;1253;58174;-68
2023/11/15 02:07:27;;;;;;;1.50;1.10;;;;;;;9.35;100.00;97605.97;109483;1253;65255;-68
2023/11/15 02:09:53;;;;;;;2.80;1.60;;;;;;;9.33;100.00;97603.77;109528;1254;60069;-68
2023/11/15 02:12:20;;;;;;;2.50;1.50;;;;;;;9.33;100.00;97598.51;109491;1252;64093;-69
2023/11/15 02:14:47;;;;;;;3.20;1.50;;;;;;;9.31;100.00;97595.08;109502;1253;58149;-68
2023/11/15 02:17:14;;;;;;;2.20;1.60;;;;;;;9.28;100.00;97601.35;109478;1253;58221;-69
2023/11/15 02:19:40;;;;;;;2.10;1.40;;;;;;;9.25;100.00;97602.73;109499;1252;66216;-69
2023/11/15 02:22:07;;;;;;;3.70;1.70;;;;;;;9.21;100.00;97602.64;109545;1252;59359;-68
2023/11/15 02:24:34;;;;;;;2.20;1.50;;;;;;;9.18;100.00;97599.55;109490;1252;63896;-68
2023/11/15 02:27:00;;;;;;;1.90;1.50;;;;;;;9.15;100.00;97596.40;109520;1252;58188;-68
2023/11/15 02:29:27;;;;;;;2.00;1.40;;;;;;;9.12;100.00;97594.94;109538;1252;58285;-68
2023/11/15 02:31:53;;;;;;;2.50;1.30;;;;;;;9.09;100.00;97593.77;109505;1252;58376;-68
2023/11/15 02:34:20;;;;;;;2.50;1.20;;;;;;;9.06;100.00;97600.04;109495;1253;58195;-69
2023/11/15 02:36:47;;;;;;;3.00;1.10;;;;;;;9.02;100.00;97602.64;109495;1253;64316;-68
2023/11/15 02:39:13;;;;;;;2.10;1.60;;;;;;;8.99;100.00;97605.55;109481;1252;58098;-68
2023/11/15 02:41:41;;;;;;;2.50;1.40;;;;;;;8.97;100.00;97608.05;109493;1252;58239;-68
2023/11/15 02:44:10;;;;;;;1.30;1.00;;;;;;;8.95;100.00;97605.15;109494;1254;66315;-69
2023/11/15 02:46:36;;;;;;;4.30;1.80;;;;;;;8.94;100.00;97609.36;109500;1253;58711;-68
2023/11/15 02:49:21;;;;;;;2.20;1.60;;;;;;;8.91;100.00;97610.48;109506;1254;63743;-68
2023/11/15 02:51:49;;;;;;;2.10;1.40;;;;;;;8.88;100.00;97610.67;109484;1252;58180;-68
2023/11/15 02:54:15;;;;;;;1.50;1.30;;;;;;;8.86;100.00;97611.75;109496;1251;58313;-68
2023/11/15 02:56:42;;;;;;;3.70;2.00;;;;;;;8.84;100.00;97609.25;109500;1251;75009;-68
2023/11/15 02:59:08;;;;;;;3.20;1.40;;;;;;;8.82;100.00;97612.11;109539;1251;61460;-68
2023/11/15 03:01:35;;;;;;;1.90;1.30;;;;;;;8.80;100.00;97617.21;109527;1253;58310;-69
2023/11/15 03:04:01;;;;;;;2.40;1.50;;;;;;;8.78;100.00;97615.25;109135;1254;58221;-68
2023/11/15 03:06:28;;;;;;;2.30;1.40;;;;;;;8.76;100.00;97613.42;109516;1253;58128;-68
2023/11/15 03:08:55;;;;;;;2.70;1.30;;;;;;;8.75;100.00;97613.69;109500;1253;63853;-68
2023/11/15 03:11:21;;;;;;;2.30;1.40;;;;;;;8.73;100.00;97614.55;109499;1254;58313;-68
2023/11/15 03:13:48;;;;;;;3.40;1.20;;;;;;;8.72;100.00;97613.27;109266;1252;58611;-69
2023/11/15 03:16:14;;;;;;;2.50;1.60;;;;;;;8.71;100.00;97613.88;109466;1253;58431;-69
2023/11/15 03:18:42;;;;;;;1.80;1.50;;;;;;;8.70;100.00;97617.33;109514;1252;58092;-68
2023/11/15 03:21:09;;;;;;;2.30;1.40;;;;;;;8.68;100.00;97612.19;109518;1251;65049;-69
2023/11/15 03:23:35;;;;;;;2.10;1.50;;;;;;;8.66;100.00;97614.64;109519;1253;59276;-69
2023/11/15 03:26:02;;;;;;;2.20;1.30;;;;;;;8.65;100.00;97618.83;109503;1252;63913;-68
2023/11/15 03:28:30;;;;;;;2.20;1.30;;;;;;;8.64;100.00;97622.11;109508;1253;58450;-69
2023/11/15 03:30:57;;;;;;;1.80;1.50;;;;;;;8.61;100.00;97621.95;109520;1253;58153;-69
2023/11/15 03:33:23;;;;;;;2.80;1.50;;;;;;;8.59;100.00;97623.15;109496;1252;64039;-68
2023/11/15 03:35:50;;;;;;;1.60;1.20;;;;;;;8.58;100.00;97621.15;109569;1253;58407;-68
2023/11/15 03:38:16;;;;;;;2.70;1.40;;;;;;;8.56;100.00;97625.73;109480;1253;62503;-69
2023/11/15 03:40:43;;;;;;;3.60;1.40;;;;;;;8.54;100.00;97625.86;109482;1254;58160;-69
2023/11/15 03:43:10;;;;;;;3.70;1.20;;;;;;;8.52;100.00;97626.55;109521;1252;58139;-69
2023/11/15 03:45:37;;;;;;;1.10;1.00;;;;;;;8.51;100.00;97625.61;109528;1253;58581;-68
2023/11/15 03:48:04;;;;;;;1.70;1.20;;;;;;;8.49;100.00;97629.26;109281;1252;58833;-69
2023/11/15 03:50:30;;;;;;;1.90;1.40;;;;;;;8.49;100.00;97629.14;109475;1253;62541;-68
2023/11/15 03:52:57;;;;;;;2.00;1.30;;;;;;;8.47;100.00;97629.65;109510;1251;58195;-69
2023/11/15 03:55:23;;;;;;;2.30;1.10;;;;;;;8.46;100.00;97632.04;109538;1253;58182;-69
2023/11/15 03:57:50;;;;;;;2.00;1.20;;;;;;;8.44;100.00;97628.61;109517;1252;65278;-70
2023/11/15 04:00:17;;;;;;;1.60;1.20;;;;;;;8.43;100.00;97624.66;109529;1254;58620;-70
2023/11/15 04:02:45;;;;;;;2.30;1.80;;;;;;;8.41;100.00;97621.24;109133;1251;64276;-69
2023/11/15 04:05:12;;;;;;;1.70;1.60;;;;;;;8.39;100.00;97619.63;109534;1253;58147;-69
2023/11/15 04:07:41;;;;;;;2.00;1.00;;;;;;;8.38;100.00;97621.83;109494;1253;58172;-69
2023/11/15 04:10:09;;;;;;;1.40;1.10;;;;;;;8.36;100.00;97617.33;109521;1253;65301;-69
2023/11/15 04:12:37;;;;;;;2.90;1.20;;;;;;;8.35;100.00;97617.79;109087;1256;60117;-69
2023/11/15 04:15:04;;;;;;;1.30;1.20;;;;;;;8.34;100.00;97616.67;109080;1256;62549;-69
2023/11/15 04:17:31;;;;;;;1.90;1.00;;;;;;;8.33;100.00;97619.77;108859;1257;58399;-69
2023/11/15 04:19:57;;;;;;;0.90;0.80;;;;;;;8.33;100.00;97618.69;109127;1256;58176;-69
2023/11/15 04:22:24;;;;;;;2.30;1.30;;;;;;;8.32;100.00;97615.05;108929;1256;64052;-69
2023/11/15 04:24:52;;;;;;;2.60;1.00;;;;;;;8.32;100.00;97614.34;109078;1256;60093;-69
2023/11/15 04:27:19;;;;;;;2.20;1.40;;;;;;;8.31;100.00;97610.34;108998;1256;63886;-69
2023/11/15 04:29:46;;;;;;;2.70;1.20;;;;;;;8.31;100.00;97609.60;109059;1256;58526;-68
2023/11/15 04:32:12;;;;;;;3.20;1.80;;;;;;;8.30;100.00;97610.05;109068;1256;58273;-69
2023/11/15 04:34:39;;;;;;;2.40;1.50;;;;;;;8.30;100.00;97611.69;109064;1256;65323;-69
2023/11/15 04:37:05;;;;;;;4.20;2.10;;;;;;;8.29;100.00;97609.27;109072;1256;60207;-70
2023/11/15 04:39:33;;;;;;;2.30;1.70;;;;;;;8.29;100.00;97608.71;109062;1257;63883;-69
2023/11/15 04:42:01;;;;;;;1.60;1.40;;;;;;;8.29;100.00;97608.40;109073;1256;58433;-70
2023/11/15 04:44:29;;;;;;;1.40;1.10;;;;;;;8.28;100.00;97610.73;109431;1252;58293;-70
2023/11/15 04:46:56;;;;;;;1.00;0.90;;;;;;;8.28;100.00;97609.31;109526;1253;65337;-69
2023/11/15 04:49:22;;;;;;;1.30;0.90;;;;;;;8.28;100.00;97607.19;109508;1252;61443;-70
2023/11/15 04:51:49;;;;;;;1.10;1.00;;;;;;;8.28;100.00;97608.42;109497;1253;63826;-69
2023/11/15 04:54:15;;;;;;;1.10;1.00;;;;;;;8.28;100.00;97608.11;109360;1253;58297;-70
2023/11/15 04:56:42;;;;;;;1.80;0.90;;;;;;;8.27;100.00;97607.27;109519;1252;58343;-69
2023/11/15 04:59:09;;;;;;;1.20;1.10;;;;;;;8.27;100.00;97606.23;109497;1253;63937;-69
2023/11/15 05:01:36;;;;;;;1.70;1.10;;;;;;;8.27;100.00;97608.02;109543;1253;69924;-69
2023/11/15 05:04:02;;;;;;;1.30;1.00;;;;;;;8.27;100.00;97609.09;109482;1252;58241;-68
2023/11/15 05:06:29;;;;;;;1.30;1.00;;;;;;;8.26;100.00;97608.95;109553;1252;58417;-70
2023/11/15 05:08:55;;;;;;;2.90;1.20;;;;;;;8.26;100.00;97607.23;109534;1253;58212;-68
2023/11/15 05:11:22;;;;;;;2.70;1.60;;;;;;;8.24;100.00;97607.68;109574;1253;58761;-68
2023/11/15 05:13:48;;;;;;;3.00;1.20;;;;;;;8.25;100.00;97612.77;109543;1253;58211;-69
2023/11/15 05:16:15;;;;;;;1.20;1.10;;;;;;;8.25;100.00;97612.95;109508;1251;64151;-68
2023/11/15 05:18:41;;;;;;;1.10;1.00;;;;;;;8.24;100.00;97613.89;109342;1253;58187;-69
2023/11/15 05:21:08;;;;;;;2.40;1.10;;;;;;;8.25;100.00;97614.56;109504;1253;58237;-69
2023/11/15 05:23:34;;;;;;;1.70;1.30;;;;;;;8.26;100.00;97610.55;109544;1252;66487;-70
2023/11/15 05:26:02;;;;;;;1.20;1.10;;;;;;;8.26;100.00;97613.58;109571;1253;60019;-69
2023/11/15 05:28:28;;;;;;;1.70;1.40;;;;;;;8.24;100.00;97611.79;109542;1252;64049;-68
2023/11/15 05:30:55;;;;;;;1.80;1.60;;;;;;;8.22;100.00;97614.05;109468;1252;58138;-69
2023/11/15 05:33:21;;;;;;;2.00;1.70;;;;;;;8.20;100.00;97620.95;109274;1252;58146;-69
2023/11/15 05:35:48;;;;;;;2.50;1.70;;;;;;;8.18;100.00;97620.26;109571;1252;64225;-69
2023/11/15 05:38:14;;;;;;;1.80;1.50;;;;;;;8.17;100.00;97621.73;109138;1254;60666;-69
2023/11/15 05:40:43;;;;;;;2.40;1.40;;;;;;;8.17;100.00;97624.25;109506;1251;62576;-69
2023/11/15 05:43:09;;;;;;;2.20;1.40;;;;;;;8.14;100.00;97621.91;109157;1252;59159;-69
2023/11/15 05:45:36;;;;;;;1.50;1.40;;;;;;;8.15;100.00;97625.44;109531;1252;58554;-69
2023/11/15 05:48:03;;;;;;;3.10;1.80;;;;;;;8.16;100.00;97621.45;109159;1253;64917;-68
2023/11/15 05:50:29;;;;;;;3.00;1.70;;;;;;;8.17;100.00;97623.54;109528;1252;58918;-68
2023/11/15 05:52:56;;;;;;;2.60;2.10;;;;;;;8.16;100.00;97626.91;109507;1252;64205;-68
2023/11/15 05:55:22;;;;;;;3.20;2.30;;;;;;;8.16;100.00;97625.02;109525;1252;58419;-69
2023/11/15 05:57:49;;;;;;;3.00;2.00;;;;;;;8.16;100.00;97627.44;109537;1253;58181;-69
2023/11/15 06:00:20;;;;;;;3.30;1.90;;;;;;;8.16;100.00;97631.89;109294;1253;66205;-69
2023/11/15 06:02:47;;;;;;;3.30;2.30;;;;;;;8.16;100.00;97635.27;109533;1253;58988;-69
2023/11/15 06:05:18;;;;;;;2.40;2.20;;;;;;;8.16;100.00;97639.49;109487;1253;64871;-69
2023/11/15 06:07:45;;;;;;;3.60;2.50;;;;;;;8.15;100.00;97643.10;109536;1252;58159;-69
2023/11/15 06:10:12;;;;;;;3.30;2.60;;;;;;;8.16;100.00;97649.60;109524;1252;58567;-69
2023/11/15 06:12:41;;;;;;;2.60;2.30;;;;;;;8.16;100.00;97651.34;109403;1253;65224;-69
2023/11/15 06:15:09;;;;;;;3.10;2.70;;;;;;;8.16;100.00;97657.00;109490;1253;58624;-69
2023/11/15 06:17:39;;;;;;;3.90;2.60;;;;;;;8.16;100.00;97659.98;109130;1253;64146;-68
2023/11/15 06:20:07;;;;;;;3.60;2.00;;;;;;;8.17;100.00;97662.40;109518;1252;58209;-68
2023/11/15 06:22:34;;;;;;;2.00;1.70;;;;;;;8.19;100.00;97662.44;109471;1251;59239;-69
2023/11/15 06:25:00;;;;;;;2.50;2.20;;;;;;;8.20;100.00;97666.05;109504;1251;66636;-68
2023/11/15 06:27:28;;;;;;;8.90;5.50;;;;;;;8.22;100.00;97670.01;109548;1253;59781;-70
2023/11/15 06:29:55;;;;;;;19.70;7.10;;;;;;;8.24;100.00;97674.10;109524;1251;58254;-69
2023/11/15 06:32:23;;;;;;;12.10;5.10;;;;;;;8.25;100.00;97674.00;109336;1252;58218;-69
2023/11/15 06:34:50;;;;;;;15.60;6.80;;;;;;;8.26;100.00;97676.02;109526;1253;58900;-69
2023/11/15 06:37:17;;;;;;;5.90;3.10;;;;;;;8.26;100.00;97676.90;109246;1253;65217;-68
2023/11/15 06:39:44;;;;;;;10.70;5.00;;;;;;;8.26;100.00;97679.70;109528;1251;60163;-68
2023/11/15 06:42:11;;;;;;;10.10;5.00;;;;;;;8.27;100.00;97685.30;109162;1253;64907;-68
2023/11/15 06:44:38;;;;;;;12.70;5.30;;;;;;;8.28;100.00;97684.94;109492;1253;58148;-69
2023/11/15 06:47:08;;;;;;;7.80;3.90;;;;;;;8.28;100.00;97687.34;109504;1251;58224;-68
2023/11/15 06:49:36;;;;;;;11.10;4.60;;;;;;;8.30;100.00;97688.09;109551;1251;66503;-68
2023/11/15 06:52:03;;;;;;;7.20;3.60;;;;;;;8.32;100.00;97688.96;109517;1253;60281;-67
2023/11/15 06:54:29;;;;;;;11.60;4.90;;;;;;;8.35;100.00;97691.21;109485;1252;63741;-67
2023/11/15 06:56:56;;;;;;;15.70;5.90;;;;;;;8.38;100.00;97695.98;109530;1252;58175;-68
2023/11/15 06:59:22;;;;;;;10.20;4.10;;;;;;;8.42;100.00;97699.98;109522;1252;58223;-67
2023/11/15 07:01:49;;;;;;;7.50;3.50;;;;;;;8.45;100.00;97698.81;109527;1252;63802;-68
2023/11/15 07:04:16;;;;;;;14.30;4.80;;;;;;;8.48;100.00;97701.60;109537;1251;59003;-68
2023/11/15 07:06:46;;;;;;;9.20;3.60;;;;;;;8.52;100.00;97707.48;109526;1253;64053;-68
2023/11/15 07:09:15;;;;;;;;;;;;;;;8.57;100.00;97710.25;109519;1252;58160;-66
2023/11/15 07:11:44;;;;;;;11.60;5.00;;;;;;;8.61;100.00;97709.96;109511;1253;58371;-68
2023/11/15 07:14:11;;;;;;;7.50;4.60;;;;;;;8.64;100.00;97713.45;109520;1252;64009;-68
2023/11/15 07:16:45;;;;;;;12.00;5.60;;;;;;;8.66;100.00;97718.36;109554;1253;60254;-68
2023/11/15 07:19:13;;;;;;;8.40;4.80;;;;;;;8.70;100.00;97720.20;109497;1253;64029;-68
2023/11/15 07:21:40;;;;;;;7.10;4.80;;;;;;;8.73;100.00;97721.39;109533;1252;58136;-67
2023/11/15 07:24:09;;;;;;;7.30;5.60;;;;;;;8.75;100.00;97724.52;109600;1252;58214;-67
2023/11/15 07:26:36;;;;;;;9.30;5.50;;;;;;;8.78;100.00;97729.84;109530;1251;65058;-68
2023/11/15 07:29:06;;;;;;;9.90;5.10;;;;;;;8.79;100.00;97732.38;109521;1252;61184;-67
2023/11/15 07:31:33;;;;;;;7.00;3.50;;;;;;;8.81;100.00;97737.73;109476;1253;63896;-68
2023/11/15 07:34:00;;;;;;;6.50;4.40;;;;;;;8.83;100.00;97739.67;109523;1253;58155;-68
2023/11/15 07:36:29;;;;;;;4.80;4.40;;;;;;;8.85;100.00;97743.09;109552;1252;58581;-68
2023/11/15 07:38:57;;;;;;;6.90;6.20;;;;;;;8.87;100.00;97743.45;109520;1252;65195;-68
2023/11/15 07:41:25;;;;;;;6.80;6.20;;;;;;;8.91;100.00;97748.81;109572;1251;60478;-67
2023/11/15 07:43:55;;;;;;;6.10;4.90;;;;;;;8.96;100.00;97753.00;109523;1252;62625;-68
2023/11/15 07:46:25;;;;;;;5.10;4.50;;;;;;;8.97;100.00;97759.97;109497;1252;58254;-67
2023/11/15 07:48:51;;;;;;;;;;;;;;;8.98;100.00;97763.08;109532;1252;58325;-68
2023/11/15 07:51:18;;;;;;;5.20;4.20;;;;;;;8.98;100.00;97766.15;109537;1252;58549;-68
2023/11/15 07:53:46;;;;;;;4.10;3.70;;;;;;;8.99;100.00;97767.30;109523;1251;58711;-67
2023/11/15 07:56:13;;;;;;;4.50;3.40;;;;;;;8.99;100.00;97771.89;109556;1251;65461;-68
2023/11/15 07:58:39;;;;;;;4.50;3.40;;;;;;;8.98;100.00;97776.55;109528;1252;58215;-67
2023/11/15 08:01:09;;;;;;;3.90;2.80;;;;;;;8.97;100.00;97784.46;109517;1252;58607;-68
2023/11/15 08:03:35;;;;;;;2.80;2.60;;;;;;;8.99;100.00;97779.84;109527;1253;64913;-67
2023/11/15 08:06:03;;;;;;;2.70;2.50;;;;;;;9.06;100.00;97780.39;109552;1252;60235;-68
2023/11/15 08:08:30;;;;;;;4.60;4.30;;;;;;;9.12;100.00;97788.23;109122;1253;64121;-68
2023/11/15 08:10:57;;;;;;;3.00;2.70;;;;;;;9.19;100.00;97789.93;109546;1252;58167;-68
2023/11/15 08:13:23;;;;;;;2.50;2.00;;;;;;;9.27;100.00;97790.41;109515;1252;58185;-68
2023/11/15 08:15:50;;;;;;;1.60;1.50;;;;;;;9.33;100.00;97794.15;109543;1251;65345;-68
2023/11/15 08:18:20;;;;;;;2.50;2.30;;;;;;;9.39;100.00;97796.96;109542;1252;60066;-68
2023/11/15 08:20:46;;;;;;;2.40;1.80;;;;;;;9.46;100.00;97798.26;109546;1252;64229;-69
2023/11/15 08:23:13;;;;;;;2.70;2.20;;;;;;;9.50;100.00;97802.66;109532;1253;58514;-67
2023/11/15 08:25:47;;;;;;;4.80;4.30;;;;;;;9.55;100.00;97807.45;109541;1252;58082;-67
2023/11/15 08:28:13;;;;;;;3.60;2.70;;;;;;;9.59;100.00;97810.81;109538;1252;63690;-68
2023/11/15 08:30:40;;;;;;;3.80;2.50;;;;;;;9.62;100.00;97814.80;109483;1252;61337;-67
2023/11/15 08:33:06;;;;;;;3.40;3.10;;;;;;;9.67;100.00;97816.92;109569;1252;64903;-67
2023/11/15 08:35:33;;;;;;;3.90;3.50;;;;;;;9.74;100.00;97819.21;109518;1254;58466;-67
2023/11/15 08:37:59;;;;;;;1.70;1.60;;;;;;;9.79;100.00;97824.29;109197;1253;58692;-68
2023/11/15 08:40:26;;;;;;;4.10;2.00;;;;;;;9.82;100.00;97828.45;109489;1253;63884;-68
2023/11/15 08:42:53;;;;;;;3.30;2.20;;;;;;;9.85;100.00;97837.95;109539;1252;58946;-68
2023/11/15 08:45:19;;;;;;;2.60;1.80;;;;;;;9.87;100.00;97844.00;109494;1252;62511;-69
2023/11/15 08:47:46;;;;;;;3.80;2.00;;;;;;;9.90;100.00;97849.79;109508;1252;58432;-68
2023/11/15 08:50:14;;;;;;;2.70;2.00;;;;;;;9.91;100.00;97853.96;109592;1252;58415;-68
2023/11/15 08:52:41;;;;;;;1.70;1.50;;;;;;;9.94;100.00;97861.38;109528;1252;66160;-68
2023/11/15 08:55:08;;;;;;;3.50;2.20;;;;;;;9.96;100.00;97868.13;109551;1253;58890;-69
2023/11/15 08:57:35;;;;;;;2.50;2.10;;;;;;;9.98;100.00;97871.45;109282;1252;63887;-68
2023/11/15 09:00:03;;;;;;;3.90;2.20;;;;;;;10.02;100.00;97877.19;109503;1251;58558;-68
2023/11/15 09:02:30;;;;;;;3.00;2.60;;;;;;;10.05;100.00;97880.47;109462;1253;58229;-68
2023/11/15 09:04:57;;;;;;;3.00;1.80;;;;;;;10.05;100.00;97882.11;109518;1251;65304;-69
2023/11/15 09:07:24;;;;;;;1.50;1.40;;;;;;;10.02;100.00;97885.35;109290;1253;59864;-67
2023/11/15 09:09:50;;;;;;;3.20;1.80;;;;;;;9.95;100.00;97891.06;109375;1252;163071;-68
2023/11/15 09:12:18;;;;;;;2.40;2.20;;;;;;;9.89;100.00;97896.19;109526;1252;58497;-68
2023/11/15 09:14:44;;;;;;;2.90;1.80;;;;;;;9.85;100.00;97897.89;109534;1252;58533;-68
2023/11/15 09:17:16;;;;;;;3.00;2.30;;;;;;;9.83;100.00;97903.38;109509;1253;65111;-68
2023/11/15 09:19:46;;;;;;;4.00;3.60;;;;;;;9.83;100.00;97905.34;109542;1252;58794;-68
2023/11/15 09:22:15;;;;;;;3.90;3.60;;;;;;;9.81;100.00;97909.58;109486;1252;65465;-68
2023/11/15 09:24:41;;;;;;;4.40;3.70;;;;;;;9.76;100.00;97914.97;109514;1252;58207;-68
2023/11/15 09:27:08;;;;;;;2.50;2.30;;;;;;;9.70;100.00;97916.16;109556;1253;58129;-68
2023/11/15 09:29:35;;;;;;;2.90;2.60;;;;;;;9.66;100.00;97921.82;109537;1252;65234;-68
2023/11/15 09:32:01;;;;;;;3.10;2.70;;;;;;;9.62;100.00;97922.27;109532;1251;58761;-67
2023/11/15 09:34:28;;;;;;;3.90;3.60;;;;;;;9.61;100.00;97925.39;109519;1253;62521;-68
2023/11/15 09:36:54;;;;;;;5.30;3.10;;;;;;;9.61;100.00;97927.53;109543;1252;58170;-68
2023/11/15 09:39:21;;;;;;;5.90;5.40;;;;;;;9.58;100.00;97930.94;109528;1251;58147;-67
2023/11/15 09:41:53;;;;;;;6.00;4.80;;;;;;;9.56;100.00;97934.45;109590;1252;58531;-68
2023/11/15 09:44:23;;;;;;;4.60;4.00;;;;;;;9.61;100.00;97939.21;109307;1252;58505;-67
2023/11/15 09:46:57;;;;;;;4.20;3.80;;;;;;;9.64;100.00;97942.20;109303;1252;62878;-68
2023/11/15 09:49:25;;;;;;;4.40;3.80;;;;;;;9.67;100.00;97944.95;109524;1252;58164;-68
2023/11/15 09:51:52;;;;;;;4.20;3.90;;;;;;;9.70;100.00;97945.48;109527;1252;58313;-68
2023/11/15 09:54:22;;;;;;;4.40;4.00;;;;;;;9.73;100.00;97946.28;109497;1253;65225;-68
2023/11/15 09:56:49;;;;;;;3.90;3.50;;;;;;;9.74;100.00;97944.94;109530;1254;59938;-68
2023/11/15 09:59:18;;;;;;;5.10;4.20;;;;;;;9.77;100.00;97944.73;109504;1252;63743;-69
2023/11/15 10:01:46;;;;;;;6.70;5.70;;;;;;;9.77;100.00;97945.42;109533;1255;58461;-67
2023/11/15 10:04:27;;;;;;;7.80;7.00;;;;;;;9.76;100.00;97948.48;109535;1252;58120;-68
2023/11/15 10:07:01;;;;;;;8.50;7.50;;;;;;;9.76;100.00;97953.65;109508;1253;65392;-68
2023/11/15 10:09:38;;;;;;;10.30;9.40;;;;;;;9.74;100.00;97955.95;109468;1252;59827;-68
2023/11/15 10:12:06;;;;;;;10.10;9.10;;;;;;;9.72;100.00;97959.09;109504;1253;62835;-68
2023/11/15 10:14:35;;;;;;;9.60;8.70;;;;;;;9.70;100.00;97962.30;109520;1252;58238;-68
2023/11/15 10:17:03;;;;;;;10.90;9.90;;;;;;;9.70;100.00;97962.70;109523;1252;58182;-67
2023/11/15 10:19:30;;;;;;;11.30;10.10;;;;;;;9.67;100.00;97963.25;109525;1252;64966;-68
2023/11/15 10:22:02;;;;;;;10.70;9.70;;;;;;;9.64;100.00;97970.55;109531;1251;59828;-68
2023/11/15 10:24:30;;;;;;;9.30;8.40;;;;;;;9.62;100.00;97973.58;109515;1252;64153;-67
2023/11/15 10:27:10;;;;;;;8.40;7.60;;;;;;;9.59;100.00;97979.63;109506;1252;58220;-69
2023/11/15 10:29:38;;;;;;;7.70;6.90;;;;;;;9.60;100.00;97985.10;109581;1252;58180;-69
2023/11/15 10:32:05;;;;;;;5.60;4.70;;;;;;;9.62;100.00;97987.56;109539;1251;63932;-68
2023/11/15 10:34:32;;;;;;;5.10;4.60;;;;;;;9.66;100.00;97991.48;109354;1252;58620;-68
2023/11/15 10:37:07;;;;;;;4.00;3.60;;;;;;;9.65;100.00;97993.65;109504;1252;63770;-67
2023/11/15 10:39:40;;;;;;;4.50;4.00;;;;;;;9.69;100.00;97996.10;109507;1252;58321;-68
2023/11/15 10:42:09;;;;;;;4.60;3.90;;;;;;;9.75;100.00;98001.21;109513;1252;58328;-68
2023/11/15 10:44:37;;;;;;;4.50;4.10;;;;;;;9.82;100.00;98004.94;109518;1253;66320;-68
2023/11/15 10:47:05;;;;;;;3.80;3.40;;;;;;;9.90;100.00;98004.30;109476;1254;60195;-67
2023/11/15 10:49:38;;;;;;;3.40;3.10;;;;;;;10.01;100.00;98007.16;109537;1253;64069;-68
2023/11/15 10:52:06;;;;;;;3.90;3.20;;;;;;;10.09;100.00;98008.62;109232;1253;58182;-68
2023/11/15 10:54:33;;;;;;;4.20;3.40;;;;;;;10.10;100.00;98008.33;109533;1252;60958;-67
2023/11/15 10:57:01;;;;;;;3.50;2.80;;;;;;;10.12;100.00;98010.34;109504;1253;65246;-68
2023/11/15 10:59:33;;;;;;;3.10;2.90;;;;;;;10.19;100.00;98013.69;109500;1253;58612;-68
2023/11/15 11:02:05;;;;;;;2.90;2.50;;;;;;;10.28;100.00;98017.56;109503;1253;63751;-67
2023/11/15 11:04:38;;;;;;;3.40;2.70;;;;;;;10.29;100.00;98021.27;109462;1251;58252;-67
2023/11/15 11:07:11;;;;;;;3.10;2.70;;;;;;;10.24;100.00;98026.45;109538;1251;58073;-68
2023/11/15 11:09:47;;;;;;;2.80;2.60;;;;;;;10.20;100.00;98025.84;109561;1252;65682;-68
2023/11/15 11:12:22;;;;;;;3.30;2.50;;;;;;;10.19;100.00;98030.42;109583;1254;60130;-68
2023/11/15 11:15:17;;;;;;;2.80;2.20;;;;;;;10.17;100.00;98028.27;109560;1252;63736;-68
2023/11/15 11:17:45;;;;;;;3.10;2.30;;;;;;;10.20;100.00;98034.07;109484;1252;58542;-68
2023/11/15 11:20:24;;;;;;;4.10;3.00;;;;;;;10.23;100.00;98038.22;109534;1252;58107;-68
2023/11/15 11:23:17;;;;;;;3.00;2.70;;;;;;;10.27;100.00;98039.17;109518;1251;65271;-68
2023/11/15 11:25:46;;;;;;;3.90;2.40;;;;;;;10.32;100.00;98044.44;109548;1251;60231;-68
2023/11/15 11:28:13;;;;;;;2.20;1.90;;;;;;;10.33;100.00;98048.83;109519;1252;65088;-68